Terminal Aerodrome Forecast
Issued by NWS

Home | Current Version | Previous Version | Text Only | Print | Product List | Glossary On
Versions: 1 2 3 4 5 6 7 8 9 10 11 12 13 14 15 16
000
FTUS43 KJKL 030538
TAFSME
TAF
KSME 030538Z 0306/0406 VRB05KT P6SM SCT100
     FM030900 00000KT 2SM BR SCT005
     FM031030 00000KT 1/2SM FG BKN002
     FM031230 VRB05KT P6SM SCT050=

USA.gov is the U.S. government's official web portal to all federal, state and local government web resources and services.